Time;durP1;ratioP1;P1;durP2;ratioP2;P2;SDS_P1;SDS_P2;PMS_P1;PMS_P2;Temp;Humidity;BMP_temperature;BMP_pressure;BME280_temperature;BME280_humidity;BME280_pressure;Samples;Min_cycle;Max_cycle;Signal;HPM_P1;HPM_P2
2023/07/28 00:01:23;;;;;;;;;;;17.50;99.90;;;;;;5126072;27;19912;-60
2023/07/28 00:03:49;;;;;;;;;;;17.50;99.90;;;;;;5118664;28;20480;-60
2023/07/28 00:06:14;;;;;;;;;;;17.50;99.90;;;;;;5118719;28;19915;-60
2023/07/28 00:08:40;;;;;;;;;;;17.50;99.90;;;;;;5118640;28;19908;-60
2023/07/28 00:11:14;;;;;;;;;;;17.50;99.90;;;;;;5118705;28;19908;-60
2023/07/28 00:13:39;;;;;;;;;;;17.50;99.90;;;;;;5118407;28;19907;-60
2023/07/28 00:16:05;;;;;;;;;;;17.50;99.90;;;;;;5118348;28;19947;-60
2023/07/28 00:18:31;;;;;;;;;;;17.40;99.90;;;;;;5118520;28;19960;-60
2023/07/28 00:20:57;;;;;;;;;;;17.40;99.90;;;;;;5118039;28;19920;-60
2023/07/28 00:23:22;;;;;;;;;;;17.40;99.90;;;;;;5118554;28;19933;-60
2023/07/28 00:25:48;;;;;;;;;;;17.40;99.90;;;;;;5118672;28;19908;-60
2023/07/28 00:28:14;;;;;;;;;;;17.30;99.90;;;;;;5118360;28;19992;-60
2023/07/28 00:30:39;;;;;;;;;;;17.20;99.90;;;;;;5118471;28;20381;-60
2023/07/28 00:33:05;;;;;;;;;;;17.20;99.90;;;;;;5118386;28;20290;-60
2023/07/28 00:35:31;;;;;;;;;;;17.20;99.90;;;;;;5118510;28;19908;-59
2023/07/28 00:37:56;;;;;;;;;;;17.10;99.90;;;;;;5131392;28;19934;-60
2023/07/28 00:40:22;;;;;;;;;;;17.10;99.90;;;;;;5138686;28;19914;-60
2023/07/28 00:42:48;;;;;;;;;;;17.10;99.90;;;;;;5139002;28;19908;-60
2023/07/28 00:45:14;;;;;;;;;;;17.70;99.90;;;;;;5139233;28;20327;-60
2023/07/28 00:47:40;;;;;;;;;;;17.10;99.90;;;;;;5138904;28;20270;-60
2023/07/28 00:50:06;;;;;;;;;;;17.10;99.90;;;;;;5138904;28;19956;-60
2023/07/28 00:52:31;;;;;;;;;;;17.10;99.90;;;;;;5131086;28;20301;-60
2023/07/28 00:54:57;;;;;;;;;;;17.10;99.90;;;;;;5119533;28;19941;-60
2023/07/28 00:57:23;;;;;;;;;;;17.10;99.90;;;;;;5135729;28;19980;-60
2023/07/28 00:59:48;;;;;;;;;;;17.20;99.90;;;;;;5136743;28;19911;-59
2023/07/28 01:02:14;;;;;;;;;;;17.10;99.90;;;;;;5129540;28;19912;-60
2023/07/28 01:04:40;;;;;;;;;;;17.10;99.90;;;;;;5126206;28;20260;-60
2023/07/28 01:07:35;;;;;;;;;;;17.10;99.90;;;;;;5118207;28;19908;-60
2023/07/28 01:10:01;;;;;;;;;;;17.10;99.90;;;;;;5106354;28;19908;-60
2023/07/28 01:12:26;;;;;;;;;;;17.10;99.90;;;;;;5117980;28;19919;-60
2023/07/28 01:14:52;;;;;;;;;;;17.10;99.90;;;;;;5120332;28;19960;-60
2023/07/28 01:17:19;;;;;;;;;;;17.10;99.90;;;;;;5122260;28;19943;-60
2023/07/28 01:19:45;;;;;;;;;;;17.10;99.90;;;;;;5121819;27;19931;-60
2023/07/28 01:22:26;;;;;;;;;;;17.10;99.90;;;;;;5132537;27;19911;-59
2023/07/28 01:24:57;;;;;;;;;;;17.10;99.90;;;;;;5131331;27;19971;-59
2023/07/28 01:27:23;;;;;;;;;;;17.10;99.90;;;;;;5130018;27;19998;-60
2023/07/28 01:29:48;;;;;;;;;;;17.10;99.90;;;;;;5131561;27;19954;-60
2023/07/28 01:32:14;;;;;;;;;;;17.10;99.90;;;;;;5131680;27;19912;-60
2023/07/28 01:34:40;;;;;;;;;;;17.10;99.90;;;;;;5129840;27;19930;-59
2023/07/28 01:37:05;;;;;;;;;;;17.10;99.90;;;;;;5131703;27;19907;-60
2023/07/28 01:39:31;;;;;;;;;;;17.10;99.90;;;;;;5131067;27;19957;-60
2023/07/28 01:41:56;;;;;;;;;;;17.10;99.90;;;;;;5130213;27;19952;-59
2023/07/28 01:44:22;;;;;;;;;;;17.10;99.90;;;;;;5131829;27;19907;-60
2023/07/28 01:46:48;;;;;;;;;;;17.10;99.90;;;;;;5130491;27;19912;-59
2023/07/28 01:49:13;;;;;;;;;;;17.10;99.90;;;;;;5130466;27;19930;-59
2023/07/28 01:51:39;;;;;;;;;;;17.10;99.90;;;;;;5131664;27;19918;-59
2023/07/28 01:54:04;;;;;;;;;;;17.10;99.90;;;;;;5129788;27;19947;-60
2023/07/28 01:56:30;;;;;;;;;;;17.00;99.90;;;;;;5131858;27;19908;-60
2023/07/28 01:58:56;;;;;;;;;;;17.00;99.90;;;;;;5135149;27;19919;-60
2023/07/28 02:01:21;;;;;;;;;;;17.00;99.90;;;;;;5129517;27;20384;-59
2023/07/28 02:03:47;;;;;;;;;;;17.10;99.90;;;;;;5130231;27;19907;-59
2023/07/28 02:06:13;;;;;;;;;;;17.00;99.90;;;;;;5127584;27;19911;-60
2023/07/28 02:08:38;;;;;;;;;;;17.10;99.90;;;;;;5129920;27;19937;-60
2023/07/28 02:11:04;;;;;;;;;;;17.10;99.90;;;;;;5131338;27;19907;-60
2023/07/28 02:13:30;;;;;;;;;;;17.10;99.90;;;;;;5129594;27;19912;-60
2023/07/28 02:15:55;;;;;;;;;;;17.10;99.90;;;;;;5130823;27;19915;-60
2023/07/28 02:18:21;;;;;;;;;;;17.10;99.90;;;;;;5129216;27;19927;-59
2023/07/28 02:20:49;;;;;;;;;;;17.10;99.90;;;;;;5128626;27;19927;-60
2023/07/28 02:23:15;;;;;;;;;;;17.20;99.90;;;;;;5130278;27;20004;-59
2023/07/28 02:25:41;;;;;;;;;;;17.20;99.90;;;;;;5126917;27;19908;-60
2023/07/28 02:28:08;;;;;;;;;;;17.20;99.90;;;;;;5131071;27;19964;-60
2023/07/28 02:30:34;;;;;;;;;;;17.20;99.90;;;;;;5130170;27;19908;-60
2023/07/28 02:32:59;;;;;;;;;;;17.20;99.90;;;;;;5128699;27;19922;-60
2023/07/28 02:35:25;;;;;;;;;;;17.20;99.90;;;;;;5128671;27;19912;-59
2023/07/28 02:37:50;;;;;;;;;;;17.30;99.90;;;;;;5130470;27;19942;-60
2023/07/28 02:40:16;;;;;;;;;;;17.30;99.90;;;;;;5130149;27;19911;-60
2023/07/28 02:42:42;;;;;;;;;;;17.30;99.90;;;;;;5128652;27;19916;-59
2023/07/28 02:45:09;;;;;;;;;;;17.30;99.90;;;;;;5130663;27;20266;-59
2023/07/28 02:47:35;;;;;;;;;;;17.30;99.90;;;;;;5129496;27;19908;-60
2023/07/28 02:50:01;;;;;;;;;;;17.40;99.90;;;;;;5128439;27;19914;-60
2023/07/28 02:52:26;;;;;;;;;;;17.40;99.90;;;;;;5131000;27;20014;-59
2023/07/28 02:54:52;;;;;;;;;;;17.40;99.90;;;;;;5139159;27;20011;-60
2023/07/28 02:57:17;;;;;;;;;;;17.40;99.90;;;;;;5138322;27;20023;-59
2023/07/28 02:59:43;;;;;;;;;;;17.40;99.90;;;;;;5137521;27;19914;-60
2023/07/28 03:02:09;;;;;;;;;;;17.40;99.90;;;;;;5126548;27;19965;-59
2023/07/28 03:04:34;;;;;;;;;;;17.40;99.90;;;;;;5110386;27;20393;-59
2023/07/28 03:07:00;;;;;;;;;;;17.40;99.90;;;;;;5130150;27;19907;-59
2023/07/28 03:09:25;;;;;;;;;;;17.40;99.90;;;;;;5128342;27;19907;-59
2023/07/28 03:11:51;;;;;;;;;;;17.40;99.90;;;;;;5129438;27;19998;-60
2023/07/28 03:14:17;;;;;;;;;;;17.40;99.90;;;;;;5129855;27;19953;-59
2023/07/28 03:16:42;;;;;;;;;;;17.30;99.90;;;;;;5128121;27;19907;-59
2023/07/28 03:19:08;;;;;;;;;;;17.30;99.90;;;;;;5129482;27;19919;-59
2023/07/28 03:21:33;;;;;;;;;;;17.30;99.90;;;;;;5129477;27;20436;-59
2023/07/28 03:23:59;;;;;;;;;;;17.30;99.90;;;;;;5128007;27;19963;-59
2023/07/28 03:26:25;;;;;;;;;;;17.20;99.90;;;;;;5129878;27;19914;-59
2023/07/28 03:28:50;;;;;;;;;;;17.20;99.90;;;;;;5128807;27;19915;-60
2023/07/28 03:31:16;;;;;;;;;;;17.20;99.90;;;;;;5128122;27;19908;-59
2023/07/28 03:33:41;;;;;;;;;;;17.20;99.90;;;;;;5129713;27;19908;-59
2023/07/28 03:36:08;;;;;;;;;;;17.20;99.90;;;;;;5127890;27;19908;-59
2023/07/28 03:38:34;;;;;;;;;;;17.30;99.90;;;;;;5127254;27;19911;-59
2023/07/28 03:40:59;;;;;;;;;;;17.30;99.90;;;;;;5128710;27;20385;-60
2023/07/28 03:43:25;;;;;;;;;;;17.30;99.90;;;;;;5127159;27;19911;-60
2023/07/28 03:45:50;;;;;;;;;;;17.30;99.90;;;;;;5127743;27;19932;-60
2023/07/28 03:48:16;;;;;;;;;;;17.30;99.90;;;;;;5129799;27;19952;-59
2023/07/28 03:50:42;;;;;;;;;;;17.30;99.90;;;;;;5129613;27;19911;-59
2023/07/28 03:53:07;;;;;;;;;;;17.40;99.90;;;;;;5127741;27;19934;-60
2023/07/28 03:55:34;;;;;;;;;;;17.40;99.90;;;;;;5128117;27;19907;-60
2023/07/28 03:58:00;;;;;;;;;;;17.30;99.90;;;;;;5129325;27;20243;-59
2023/07/28 04:00:26;;;;;;;;;;;17.30;99.90;;;;;;5127546;27;19937;-59
2023/07/28 04:02:51;;;;;;;;;;;17.30;99.90;;;;;;5128287;27;20411;-59
2023/07/28 04:05:17;;;;;;;;;;;17.30;99.90;;;;;;5127657;27;19907;-59
2023/07/28 04:07:43;;;;;;;;;;;17.30;99.90;;;;;;5129062;27;19907;-59
2023/07/28 04:10:08;;;;;;;;;;;17.20;99.90;;;;;;5127809;27;19912;-59
2023/07/28 04:12:34;;;;;;;;;;;17.20;99.90;;;;;;5127573;27;19912;-60
2023/07/28 04:14:59;;;;;;;;;;;17.20;99.90;;;;;;5129027;27;19907;-59
2023/07/28 04:17:25;;;;;;;;;;;17.10;99.90;;;;;;5127148;27;20329;-59
2023/07/28 04:19:51;;;;;;;;;;;17.10;99.90;;;;;;5127990;27;19919;-59
2023/07/28 04:22:21;;;;;;;;;;;17.10;99.90;;;;;;5128576;27;19916;-59
2023/07/28 04:24:47;;;;;;;;;;;17.10;99.90;;;;;;5127429;27;19923;-60
2023/07/28 04:27:12;;;;;;;;;;;17.00;99.90;;;;;;5109405;28;19908;-59
2023/07/28 04:29:38;;;;;;;;;;;17.10;99.90;;;;;;5129087;28;19960;-59
2023/07/28 04:32:04;;;;;;;;;;;17.10;99.90;;;;;;5126576;28;19912;-59
2023/07/28 04:34:29;;;;;;;;;;;17.10;99.90;;;;;;5109819;28;19908;-59
2023/07/28 04:36:55;;;;;;;;;;;17.10;99.90;;;;;;5128352;28;19998;-59
2023/07/28 04:39:21;;;;;;;;;;;17.10;99.90;;;;;;5126663;28;19908;-59
2023/07/28 04:41:46;;;;;;;;;;;17.20;99.90;;;;;;5128549;28;19938;-60
2023/07/28 04:44:12;;;;;;;;;;;17.20;99.90;;;;;;5123227;28;20002;-59
2023/07/28 04:46:38;;;;;;;;;;;17.20;99.90;;;;;;5128525;28;19912;-59
2023/07/28 04:49:03;;;;;;;;;;;17.20;99.90;;;;;;5129450;27;20023;-59
2023/07/28 04:51:29;;;;;;;;;;;17.20;99.90;;;;;;5131986;27;19914;-59
2023/07/28 04:53:54;;;;;;;;;;;17.20;99.90;;;;;;5136715;27;20393;-59
2023/07/28 04:56:20;;;;;;;;;;;17.20;99.90;;;;;;5140953;27;19919;-59
2023/07/28 04:58:46;;;;;;;;;;;17.20;99.90;;;;;;5130321;27;19999;-59
2023/07/28 05:01:13;;;;;;;;;;;17.10;99.90;;;;;;5123348;27;19911;-59
2023/07/28 05:03:38;;;;;;;;;;;17.10;99.90;;;;;;5133296;27;19964;-59
2023/07/28 05:06:05;;;;;;;;;;;17.10;99.90;;;;;;5122022;28;19908;-59
2023/07/28 05:08:30;;;;;;;;;;;17.10;99.90;;;;;;5137210;27;19911;-59
2023/07/28 05:10:56;;;;;;;;;;;17.10;99.90;;;;;;5142619;27;19928;-59
2023/07/28 05:13:22;;;;;;;;;;;17.10;99.90;;;;;;5142327;27;19912;-59
2023/07/28 05:15:47;;;;;;;;;;;17.10;99.90;;;;;;5142679;27;19907;-59
2023/07/28 05:18:13;;;;;;;;;;;17.10;99.90;;;;;;5142352;27;19915;-59
2023/07/28 05:20:39;;;;;;;;;;;17.10;99.90;;;;;;5127127;27;19920;-59
2023/07/28 05:23:04;;;;;;;;;;;17.10;99.90;;;;;;5121272;28;19907;-59
2023/07/28 05:25:30;;;;;;;;;;;17.10;99.90;;;;;;5122040;28;20355;-59
2023/07/28 05:27:57;;;;;;;;;;;17.20;99.90;;;;;;5120791;28;21346;-59
2023/07/28 05:30:23;;;;;;;;;;;17.10;99.90;;;;;;5121595;28;19908;-59
2023/07/28 05:32:49;;;;;;;;;;;17.20;99.90;;;;;;5123247;27;19922;-59
2023/07/28 05:35:14;;;;;;;;;;;17.20;99.90;;;;;;5130960;27;19908;-59
2023/07/28 05:37:40;;;;;;;;;;;17.20;99.90;;;;;;5121341;28;19908;-59
2023/07/28 05:40:06;;;;;;;;;;;17.20;99.90;;;;;;5121695;28;19908;-59
2023/07/28 05:42:31;;;;;;;;;;;17.20;99.90;;;;;;5121743;28;19916;-59
2023/07/28 05:44:58;;;;;;;;;;;17.20;99.90;;;;;;5121619;28;20320;-59
2023/07/28 05:47:24;;;;;;;;;;;17.30;99.90;;;;;;5121222;28;19951;-59
2023/07/28 05:49:50;;;;;;;;;;;17.30;99.90;;;;;;5120951;28;19929;-59
2023/07/28 05:52:16;;;;;;;;;;;17.30;99.90;;;;;;5121239;28;19918;-59
2023/07/28 05:54:41;;;;;;;;;;;17.30;99.90;;;;;;5121061;28;19908;-59
2023/07/28 05:57:07;;;;;;;;;;;17.30;99.90;;;;;;5134900;27;19930;-59
2023/07/28 05:59:33;;;;;;;;;;;17.40;99.90;;;;;;5139835;27;19919;-59
2023/07/28 06:01:58;;;;;;;;;;;17.40;99.90;;;;;;5110963;27;19924;-59
2023/07/28 06:04:24;;;;;;;;;;;17.50;99.90;;;;;;5138318;27;19950;-59
2023/07/28 06:06:49;;;;;;;;;;;17.50;99.90;;;;;;5104735;28;19908;-59
2023/07/28 06:09:15;;;;;;;;;;;17.50;99.90;;;;;;5133553;27;19907;-59
2023/07/28 06:11:41;;;;;;;;;;;17.50;99.90;;;;;;5136686;27;19915;-59
2023/07/28 06:14:06;;;;;;;;;;;17.50;99.90;;;;;;5131023;27;19961;-59
2023/07/28 06:16:32;;;;;;;;;;;17.50;99.90;;;;;;5120400;28;19912;-59
2023/07/28 06:18:58;;;;;;;;;;;17.50;99.90;;;;;;5120491;27;19908;-59
2023/07/28 06:21:23;;;;;;;;;;;17.50;99.90;;;;;;5140376;27;19926;-59
2023/07/28 06:23:49;;;;;;;;;;;17.40;99.90;;;;;;5140938;27;19912;-60
2023/07/28 06:26:15;;;;;;;;;;;17.40;99.90;;;;;;5127980;27;19912;-59
2023/07/28 06:28:40;;;;;;;;;;;17.40;99.90;;;;;;5121303;27;19912;-59
2023/07/28 06:31:06;;;;;;;;;;;17.90;99.90;;;;;;5121069;27;19968;-59
2023/07/28 06:33:32;;;;;;;;;;;17.30;99.90;;;;;;5126278;27;20003;-59
2023/07/28 06:35:57;;;;;;;;;;;17.40;99.90;;;;;;5133986;27;20335;-59
2023/07/28 06:38:23;;;;;;;;;;;17.40;99.90;;;;;;5120329;28;19956;-59
2023/07/28 06:40:49;;;;;;;;;;;17.30;99.90;;;;;;5122112;27;20372;-59
2023/07/28 06:43:14;;;;;;;;;;;17.30;99.90;;;;;;5127681;27;20379;-59
2023/07/28 06:45:40;;;;;;;;;;;17.30;99.90;;;;;;5120166;27;19919;-59
2023/07/28 06:48:05;;;;;;;;;;;17.30;99.90;;;;;;5126681;27;19907;-59
2023/07/28 06:50:32;;;;;;;;;;;17.40;99.90;;;;;;5140084;27;19907;-59
2023/07/28 06:52:58;;;;;;;;;;;17.40;99.90;;;;;;5134511;27;19951;-59
2023/07/28 06:55:23;;;;;;;;;;;17.40;99.90;;;;;;5119546;28;19941;-59
2023/07/28 06:57:49;;;;;;;;;;;17.60;99.90;;;;;;5112223;27;19982;-59
2023/07/28 07:00:15;;;;;;;;;;;17.40;99.90;;;;;;5132207;27;20415;-59
2023/07/28 07:02:41;;;;;;;;;;;17.50;99.90;;;;;;5121698;27;19908;-59
2023/07/28 07:05:07;;;;;;;;;;;17.50;99.90;;;;;;5121685;27;19923;-59
2023/07/28 07:07:33;;;;;;;;;;;17.50;99.90;;;;;;5124122;27;20606;-60
2023/07/28 07:09:59;;;;;;;;;;;17.60;99.90;;;;;;5132637;27;19986;-60
2023/07/28 07:12:25;;;;;;;;;;;17.60;99.90;;;;;;5136155;27;20343;-60
2023/07/28 07:14:51;;;;;;;;;;;17.60;99.90;;;;;;5119184;27;19907;-59
2023/07/28 07:17:17;;;;;;;;;;;17.70;99.90;;;;;;5130946;27;19915;-59
2023/07/28 07:19:43;;;;;;;;;;;17.80;99.90;;;;;;5139567;27;19923;-59
2023/07/28 07:22:08;;;;;;;;;;;17.90;99.90;;;;;;5136923;27;19915;-59
2023/07/28 07:24:34;;;;;;;;;;;17.90;99.90;;;;;;5129532;27;19963;-59
2023/07/28 07:27:00;;;;;;;;;;;17.90;99.90;;;;;;5135239;27;19912;-59
2023/07/28 07:29:25;;;;;;;;;;;17.40;99.90;;;;;;5133637;27;20359;-59
2023/07/28 07:31:54;;;;;;;;;;;18.00;99.90;;;;;;5136578;27;20250;-59
2023/07/28 07:34:20;;;;;;;;;;;18.10;99.90;;;;;;5127839;27;19915;-59
2023/07/28 07:36:46;;;;;;;;;;;18.20;99.90;;;;;;5134701;27;19943;-60
2023/07/28 07:39:12;;;;;;;;;;;18.20;99.90;;;;;;5122295;27;19912;-60
2023/07/28 07:41:37;;;;;;;;;;;18.10;99.90;;;;;;5125335;27;20097;-59
2023/07/28 07:44:07;;;;;;;;;;;18.10;99.90;;;;;;5130494;27;19912;-59
2023/07/28 07:46:33;;;;;;;;;;;18.20;99.90;;;;;;5124645;27;19911;-60
2023/07/28 07:48:58;;;;;;;;;;;18.20;99.90;;;;;;5133835;27;19989;-60
2023/07/28 07:51:25;;;;;;;;;;;18.10;99.90;;;;;;5127188;27;19911;-59
2023/07/28 07:54:01;;;;;;;;;;;18.10;99.90;;;;;;5110660;27;19940;-59
2023/07/28 07:56:27;;;;;;;;;;;18.20;99.90;;;;;;5125538;27;20374;-60
2023/07/28 07:58:53;;;;;;;;;;;18.30;99.90;;;;;;5126284;27;19990;-59
2023/07/28 08:01:18;;;;;;;;;;;18.40;99.90;;;;;;5124401;27;20394;-59
2023/07/28 08:03:44;;;;;;;;;;;18.30;99.90;;;;;;5125881;27;19911;-60
2023/07/28 08:06:12;;;;;;;;;;;18.30;99.90;;;;;;5132025;27;20301;-59
2023/07/28 08:08:38;;;;;;;;;;;18.40;99.90;;;;;;5123886;27;19920;-60
2023/07/28 08:11:05;;;;;;;;;;;18.60;99.90;;;;;;5119777;27;19916;-60
2023/07/28 08:13:31;;;;;;;;;;;18.60;99.90;;;;;;5122465;27;19916;-59
2023/07/28 08:15:58;;;;;;;;;;;18.60;99.90;;;;;;5122219;27;19915;-59
2023/07/28 08:18:24;;;;;;;;;;;18.60;99.90;;;;;;5125487;27;19963;-60
2023/07/28 08:20:50;;;;;;;;;;;18.50;99.90;;;;;;5125074;27;19920;-59
2023/07/28 08:23:15;;;;;;;;;;;18.30;99.90;;;;;;5123392;27;19916;-59
2023/07/28 08:25:41;;;;;;;;;;;18.20;99.90;;;;;;5127542;27;19912;-60
2023/07/28 08:28:06;;;;;;;;;;;18.20;99.90;;;;;;5123974;27;19965;-60
2023/07/28 08:30:32;;;;;;;;;;;18.30;99.90;;;;;;5121175;28;19912;-59
2023/07/28 08:32:58;;;;;;;;;;;18.40;99.90;;;;;;5122095;28;19963;-59
2023/07/28 08:35:24;;;;;;;;;;;18.40;99.90;;;;;;5134296;28;19953;-59
2023/07/28 08:37:49;;;;;;;;;;;18.50;99.90;;;;;;5117233;28;19919;-59
2023/07/28 08:40:16;;;;;;;;;;;18.50;99.90;;;;;;5117345;28;19930;-59
2023/07/28 08:42:41;;;;;;;;;;;18.40;99.90;;;;;;5117310;28;19919;-59
2023/07/28 08:45:10;;;;;;;;;;;18.40;99.90;;;;;;5118091;28;19908;-59
2023/07/28 08:47:36;;;;;;;;;;;18.60;99.90;;;;;;5122027;28;19934;-59
2023/07/28 08:50:03;;;;;;;;;;;18.80;99.90;;;;;;5133098;28;20386;-59
2023/07/28 08:52:28;;;;;;;;;;;19.00;99.90;;;;;;5132325;28;19945;-60
2023/07/28 08:54:54;;;;;;;;;;;18.90;99.90;;;;;;5124312;28;19912;-59
2023/07/28 08:57:20;;;;;;;;;;;18.80;99.90;;;;;;5132010;28;19911;-60
2023/07/28 08:59:49;;;;;;;;;;;18.60;99.90;;;;;;5131071;28;19930;-59
2023/07/28 09:02:18;;;;;;;;;;;18.50;99.90;;;;;;5132102;28;20425;-59
2023/07/28 09:04:44;;;;;;;;;;;18.50;99.90;;;;;;5127002;28;19911;-60
2023/07/28 09:07:10;;;;;;;;;;;18.70;99.90;;;;;;5121598;28;20000;-60
2023/07/28 09:09:38;;;;;;;;;;;19.00;99.90;;;;;;5127382;28;19908;-59
2023/07/28 09:12:04;;;;;;;;;;;19.00;99.90;;;;;;5126231;28;20354;-59
2023/07/28 09:14:30;;;;;;;;;;;19.00;99.90;;;;;;5124919;28;19930;-59
2023/07/28 09:17:05;;;;;;;;;;;19.00;99.90;;;;;;5125337;28;19912;-60
2023/07/28 09:19:31;;;;;;;;;;;19.20;99.90;;;;;;5125788;28;19915;-60
2023/07/28 09:21:58;;;;;;;;;;;19.40;99.90;;;;;;5127140;28;20359;-59
2023/07/28 09:24:29;;;;;;;;;;;19.60;99.90;;;;;;5125107;28;19912;-59
2023/07/28 09:26:55;;;;;;;;;;;19.70;99.90;;;;;;5124865;28;19958;-59
2023/07/28 09:29:21;;;;;;;;;;;20.00;99.90;;;;;;5126226;28;19908;-59
2023/07/28 09:31:48;;;;;;;;;;;20.10;99.90;;;;;;5126321;28;19912;-59
2023/07/28 09:34:25;;;;;;;;;;;20.10;99.90;;;;;;5126380;27;20337;-59
2023/07/28 09:36:50;;;;;;;;;;;20.20;99.90;;;;;;5131364;27;19915;-59
2023/07/28 09:39:17;;;;;;;;;;;20.00;99.90;;;;;;5129970;27;20374;-59
2023/07/28 09:41:44;;;;;;;;;;;19.90;99.90;;;;;;5127334;27;19919;-59
2023/07/28 09:44:10;;;;;;;;;;;20.00;99.90;;;;;;5126539;27;19912;-59
2023/07/28 09:46:43;;;;;;;;;;;19.80;99.90;;;;;;5131017;27;19994;-59
2023/07/28 09:49:10;;;;;;;;;;;20.00;99.90;;;;;;5128451;27;19922;-59
2023/07/28 09:51:36;;;;;;;;;;;20.30;99.90;;;;;;5129582;27;19912;-59
2023/07/28 09:54:04;;;;;;;;;;;20.20;99.90;;;;;;5123749;27;19912;-59
2023/07/28 09:56:30;;;;;;;;;;;20.40;99.90;;;;;;5134421;27;20400;-59
2023/07/28 09:58:57;;;;;;;;;;;20.50;99.90;;;;;;5135397;27;19998;-59
2023/07/28 10:01:23;;;;;;;;;;;21.00;99.90;;;;;;5132504;27;20375;-59
2023/07/28 10:03:49;;;;;;;;;;;21.40;99.90;;;;;;5133902;27;19916;-59
2023/07/28 10:06:16;;;;;;;;;;;21.70;99.90;;;;;;5137123;27;19964;-59
2023/07/28 10:08:43;;;;;;;;;;;21.60;99.90;;;;;;5134419;27;19912;-59
2023/07/28 10:11:09;;;;;;;;;;;21.60;99.90;;;;;;5130595;27;19961;-59
2023/07/28 10:13:42;;;;;;;;;;;22.00;99.90;;;;;;5137762;27;20389;-59
2023/07/28 10:16:09;;;;;;;;;;;22.40;99.90;;;;;;5132782;27;19994;-59
2023/07/28 10:18:34;;;;;;;;;;;22.20;99.90;;;;;;5139289;27;19907;-59
2023/07/28 10:21:05;;;;;;;;;;;22.30;99.90;;;;;;5137303;27;19926;-59
2023/07/28 10:23:33;;;;;;;;;;;22.40;99.90;;;;;;5138727;27;19960;-59
2023/07/28 10:26:00;;;;;;;;;;;22.60;99.90;;;;;;5138615;27;19958;-58
2023/07/28 10:28:29;;;;;;;;;;;22.30;99.90;;;;;;5138866;27;20298;-57
2023/07/28 10:30:55;;;;;;;;;;;22.40;99.90;;;;;;5139045;27;19990;-57
2023/07/28 10:33:31;;;;;;;;;;;22.50;99.90;;;;;;5138986;27;19918;-58
2023/07/28 10:36:17;;;;;;;;;;;22.50;99.90;;;;;;5138732;27;19907;-58
2023/07/28 10:38:43;;;;;;;;;;;22.80;99.90;;;;;;5138775;27;19915;-58
2023/07/28 10:41:18;;;;;;;;;;;23.80;99.90;;;;;;5138682;27;19911;-58
2023/07/28 10:43:45;;;;;;;;;;;25.50;99.90;;;;;;5138626;27;20349;-58
2023/07/28 10:46:12;;;;;;;;;;;26.10;99.90;;;;;;5138377;27;19929;-58
2023/07/28 10:48:41;;;;;;;;;;;24.50;99.90;;;;;;5139029;27;19907;-58
2023/07/28 10:51:07;;;;;;;;;;;23.60;99.90;;;;;;5140568;27;20355;-58
2023/07/28 10:53:33;;;;;;;;;;;23.40;99.90;;;;;;5140741;27;19934;-57
2023/07/28 10:56:00;;;;;;;;;;;23.30;99.90;;;;;;5140521;27;19917;-58
2023/07/28 10:58:26;;;;;;;;;;;23.10;99.90;;;;;;5140711;27;19934;-58
2023/07/28 11:00:52;;;;;;;;;;;22.70;99.90;;;;;;5139367;27;19907;-58
2023/07/28 11:03:18;;;;;;;;;;;22.50;99.90;;;;;;5139892;27;19907;-57
2023/07/28 11:05:43;;;;;;;;;;;22.10;99.90;;;;;;5140215;27;19907;-58
2023/07/28 11:08:11;;;;;;;;;;;21.90;99.90;;;;;;5139862;27;19908;-58
2023/07/28 11:10:37;;;;;;;;;;;21.70;99.90;;;;;;5140098;27;19908;-58
2023/07/28 11:13:03;;;;;;;;;;;21.80;99.90;;;;;;5140246;27;19911;-58
2023/07/28 11:15:29;;;;;;;;;;;21.80;99.90;;;;;;5140078;27;19911;-58
2023/07/28 11:17:55;;;;;;;;;;;21.90;99.90;;;;;;5140381;27;19947;-58
2023/07/28 11:20:21;;;;;;;;;;;22.20;99.90;;;;;;5139810;27;19955;-58
2023/07/28 11:22:52;;;;;;;;;;;22.30;99.90;;;;;;5140055;27;20378;-58
2023/07/28 11:25:18;;;;;;;;;;;22.20;99.90;;;;;;5139873;27;19914;-58
2023/07/28 11:27:46;;;;;;;;;;;22.00;99.90;;;;;;5139881;27;20362;-58
2023/07/28 11:30:12;;;;;;;;;;;22.10;99.90;;;;;;5139832;27;19908;-58
2023/07/28 11:32:38;;;;;;;;;;;22.30;99.90;;;;;;5139785;27;19911;-58
2023/07/28 11:35:05;;;;;;;;;;;22.20;99.90;;;;;;5140077;27;19908;-58
2023/07/28 11:37:31;;;;;;;;;;;22.30;99.90;;;;;;5139859;27;19915;-58
2023/07/28 11:39:59;;;;;;;;;;;22.40;99.90;;;;;;5139608;27;19908;-58
2023/07/28 11:42:24;;;;;;;;;;;22.40;99.90;;;;;;5139281;27;19908;-58
2023/07/28 11:44:50;;;;;;;;;;;22.20;99.90;;;;;;5121630;27;20581;-58
2023/07/28 11:47:19;;;;;;;;;;;22.30;99.90;;;;;;5139798;27;19908;-58
2023/07/28 11:49:48;;;;;;;;;;;22.30;99.90;;;;;;5139622;27;19956;-58
2023/07/28 11:52:15;;;;;;;;;;;21.90;99.90;;;;;;5139556;27;20369;-57
2023/07/28 11:54:41;;;;;;;;;;;22.00;99.90;;;;;;5139297;27;19928;-58
2023/07/28 11:57:08;;;;;;;;;;;21.80;99.90;;;;;;5138870;27;20430;-57
2023/07/28 11:59:34;;;;;;;;;;;22.10;99.90;;;;;;5139515;27;19907;-57
2023/07/28 12:02:01;;;;;;;;;;;22.00;99.90;;;;;;5139478;27;19908;-57
2023/07/28 12:04:33;;;;;;;;;;;22.20;99.90;;;;;;5138769;27;19908;-58
2023/07/28 12:07:03;;;;;;;;;;;21.90;99.90;;;;;;5120452;27;19907;-58
2023/07/28 12:09:29;;;;;;;;;;;21.60;99.90;;;;;;5139103;27;19912;-58
2023/07/28 12:11:56;;;;;;;;;;;21.50;99.90;;;;;;5139150;27;19911;-58
2023/07/28 12:14:34;;;;;;;;;;;21.20;99.90;;;;;;5139200;27;20365;-58
2023/07/28 12:17:03;;;;;;;;;;;21.00;99.90;;;;;;5138889;27;19907;-57
2023/07/28 12:19:29;;;;;;;;;;;20.70;99.90;;;;;;5116665;28;19920;-57
2023/07/28 12:21:55;;;;;;;;;;;20.80;99.90;;;;;;5118844;28;19960;-57
2023/07/28 12:24:20;;;;;;;;;;;20.80;99.90;;;;;;5118231;28;19914;-57
2023/07/28 12:26:47;;;;;;;;;;;20.80;99.90;;;;;;5118542;28;19907;-57
2023/07/28 12:29:13;;;;;;;;;;;20.50;99.90;;;;;;5116890;28;19940;-57
2023/07/28 12:31:39;;;;;;;;;;;20.40;99.90;;;;;;5118225;28;19912;-57
2023/07/28 12:34:04;;;;;;;;;;;20.60;99.90;;;;;;5118359;28;19914;-58
2023/07/28 12:36:30;;;;;;;;;;;20.80;99.90;;;;;;5118298;28;19961;-58
2023/07/28 12:38:56;;;;;;;;;;;20.70;99.90;;;;;;5118199;28;19915;-57
2023/07/28 12:41:21;;;;;;;;;;;20.90;99.90;;;;;;5118437;28;19954;-57
2023/07/28 12:43:47;;;;;;;;;;;20.90;99.90;;;;;;5118365;28;20607;-57
2023/07/28 12:46:13;;;;;;;;;;;20.80;99.90;;;;;;5118321;28;19960;-57
2023/07/28 12:48:39;;;;;;;;;;;20.80;99.90;;;;;;5118343;28;19914;-57
2023/07/28 12:51:04;;;;;;;;;;;20.30;99.90;;;;;;5118526;28;19908;-57
2023/07/28 12:53:30;;;;;;;;;;;20.40;99.90;;;;;;5118507;28;19912;-57
2023/07/28 12:55:56;;;;;;;;;;;20.30;99.90;;;;;;5118370;28;19907;-58
2023/07/28 12:58:21;;;;;;;;;;;20.60;99.90;;;;;;5118149;28;19907;-57
2023/07/28 13:00:47;;;;;;;;;;;21.10;99.90;;;;;;5118561;28;19946;-58
2023/07/28 13:03:13;;;;;;;;;;;21.50;99.90;;;;;;5118364;28;19911;-57
2023/07/28 13:05:38;;;;;;;;;;;21.80;99.90;;;;;;5118614;28;19915;-58
2023/07/28 13:08:04;;;;;;;;;;;21.80;99.90;;;;;;5118248;28;19914;-58
2023/07/28 13:10:29;;;;;;;;;;;22.00;99.90;;;;;;5121202;28;20390;-58
2023/07/28 13:12:55;;;;;;;;;;;22.30;99.90;;;;;;5122154;28;19911;-57
2023/07/28 13:15:21;;;;;;;;;;;22.40;99.90;;;;;;5122134;28;19914;-58
2023/07/28 13:17:46;;;;;;;;;;;22.70;99.90;;;;;;5121873;28;19907;-58
2023/07/28 13:20:12;;;;;;;;;;;23.00;99.90;;;;;;5131251;27;19945;-58
2023/07/28 13:22:37;;;;;;;;;;;22.80;99.90;;;;;;5123764;27;19907;-57
2023/07/28 13:25:03;;;;;;;;;;;22.70;99.90;;;;;;5142675;27;19937;-57
2023/07/28 13:27:29;;;;;;;;;;;22.70;99.90;;;;;;5142146;27;20024;-58
2023/07/28 13:29:54;;;;;;;;;;;22.70;99.90;;;;;;5142607;27;20271;-57
2023/07/28 13:32:24;;;;;;;;;;;22.40;99.90;;;;;;5142012;27;19956;-58
2023/07/28 13:34:49;;;;;;;;;;;21.70;99.90;;;;;;5141788;27;20290;-57
2023/07/28 13:37:15;;;;;;;;;;;21.20;99.90;;;;;;5142429;27;19914;-57
2023/07/28 13:39:41;;;;;;;;;;;21.40;99.90;;;;;;5142136;27;19956;-57
2023/07/28 13:42:07;;;;;;;;;;;21.60;99.90;;;;;;5142088;27;19907;-57
2023/07/28 13:44:32;;;;;;;;;;;21.40;99.90;;;;;;5142006;27;19915;-57
2023/07/28 13:46:59;;;;;;;;;;;21.10;99.90;;;;;;5141975;27;19998;-57
2023/07/28 13:49:25;;;;;;;;;;;20.90;99.90;;;;;;5141971;27;19914;-57
2023/07/28 13:51:50;;;;;;;;;;;20.90;99.90;;;;;;5142048;27;19911;-57
2023/07/28 13:54:16;;;;;;;;;;;21.10;99.90;;;;;;5141749;27;19907;-57
2023/07/28 13:56:42;;;;;;;;;;;21.20;99.90;;;;;;5141418;27;19911;-57
2023/07/28 13:59:08;;;;;;;;;;;21.20;99.90;;;;;;5141955;27;19992;-57
2023/07/28 14:01:33;;;;;;;;;;;21.40;99.90;;;;;;5141306;27;19907;-57
2023/07/28 14:03:59;;;;;;;;;;;21.60;99.90;;;;;;5141843;27;20258;-57
2023/07/28 14:06:24;;;;;;;;;;;21.90;99.90;;;;;;5141562;27;19908;-57
2023/07/28 14:08:50;;;;;;;;;;;22.10;99.90;;;;;;5141243;27;19908;-57
2023/07/28 14:11:15;;;;;;;;;;;22.00;99.90;;;;;;5141803;27;19937;-57